createdAt,value
2022-09-25T00:01:20.710Z,13.90
2022-09-25T00:03:49.261Z,13.90
2022-09-25T00:06:18.721Z,13.90
2022-09-25T00:08:46.793Z,13.90
2022-09-25T00:11:16.737Z,13.90
2022-09-25T00:13:45.901Z,13.80
2022-09-25T00:16:17.742Z,13.80
2022-09-25T00:19:05.187Z,13.80
2022-09-25T00:21:34.506Z,13.80
2022-09-25T00:24:05.070Z,13.80
2022-09-25T00:26:36.356Z,13.80
2022-09-25T00:29:05.614Z,13.70
2022-09-25T00:31:34.073Z,13.70
2022-09-25T00:34:05.729Z,13.70
2022-09-25T00:36:34.553Z,13.70
2022-09-25T00:39:02.861Z,13.70
2022-09-25T00:41:32.572Z,13.70
2022-09-25T00:44:02.576Z,13.70
2022-09-25T00:46:33.401Z,13.70
2022-09-25T00:49:05.429Z,13.70
2022-09-25T00:51:41.279Z,13.70
2022-09-25T00:54:14.594Z,13.60
2022-09-25T00:56:45.900Z,13.60
2022-09-25T00:59:18.316Z,13.60
2022-09-25T01:01:46.629Z,13.60
2022-09-25T01:04:16.571Z,13.60
2022-09-25T01:06:44.602Z,13.60
2022-09-25T01:09:12.762Z,13.60
2022-09-25T01:11:40.754Z,13.60
2022-09-25T01:14:10.467Z,13.60
2022-09-25T01:16:46.445Z,13.60
2022-09-25T01:19:35.553Z,13.60
2022-09-25T01:22:12.071Z,13.60
2022-09-25T01:24:52.339Z,13.50
2022-09-25T01:27:39.324Z,13.50
2022-09-25T01:30:12.102Z,13.40
2022-09-25T01:32:52.647Z,13.40
2022-09-25T01:35:31.340Z,13.40
2022-09-25T01:38:04.376Z,13.40
2022-09-25T01:40:37.019Z,13.50
2022-09-25T01:43:11.410Z,13.50
2022-09-25T01:45:47.389Z,13.50
2022-09-25T01:48:18.812Z,13.50
2022-09-25T01:50:51.345Z,13.40
2022-09-25T01:53:24.633Z,13.40
2022-09-25T01:55:57.892Z,13.40
2022-09-25T01:58:30.048Z,13.40
2022-09-25T02:01:06.523Z,13.40
2022-09-25T02:03:39.989Z,13.40
2022-09-25T02:06:10.128Z,13.40
2022-09-25T02:08:44.095Z,13.40
2022-09-25T02:11:14.325Z,13.40
2022-09-25T02:13:49.165Z,13.40
2022-09-25T02:16:23.347Z,13.40
2022-09-25T02:19:20.276Z,13.40
2022-09-25T02:21:56.767Z,13.30
2022-09-25T02:24:30.360Z,13.30
2022-09-25T02:26:58.383Z,13.30
2022-09-25T02:29:26.513Z,13.30
2022-09-25T02:31:59.712Z,13.30
2022-09-25T02:34:27.898Z,13.30
2022-09-25T02:36:55.896Z,13.20
2022-09-25T02:39:27.642Z,13.20
2022-09-25T02:42:08.782Z,13.20
2022-09-25T02:44:46.714Z,13.30
2022-09-25T02:47:27.616Z,13.30
2022-09-25T02:50:05.484Z,13.20
2022-09-25T02:52:38.653Z,13.30
2022-09-25T02:55:09.690Z,13.30
2022-09-25T02:57:43.584Z,13.20
2022-09-25T03:00:13.423Z,13.30
2022-09-25T03:02:49.579Z,13.20
2022-09-25T03:05:21.350Z,13.20
2022-09-25T03:08:06.805Z,13.20
2022-09-25T03:10:37.594Z,13.20
2022-09-25T03:13:16.072Z,13.20
2022-09-25T03:15:46.794Z,13.20
2022-09-25T03:18:16.483Z,13.20
2022-09-25T03:20:45.012Z,13.20
2022-09-25T03:23:13.012Z,13.20
2022-09-25T03:25:44.703Z,13.20
2022-09-25T03:28:15.696Z,13.20
2022-09-25T03:30:44.503Z,13.20
2022-09-25T03:33:14.931Z,13.20
2022-09-25T03:35:42.927Z,13.20
2022-09-25T03:38:11.113Z,13.20
2022-09-25T03:40:39.184Z,13.30
2022-09-25T03:45:34.113Z,13.10
2022-09-25T03:48:02.464Z,13.10
2022-09-25T03:50:31.782Z,13.20
2022-09-25T03:52:59.784Z,13.20
2022-09-25T03:55:27.748Z,13.20
2022-09-25T03:57:55.728Z,13.20
2022-09-25T04:00:24.038Z,13.20
2022-09-25T04:02:52.209Z,13.30
2022-09-25T04:05:21.368Z,13.20
2022-09-25T04:07:50.739Z,13.20
2022-09-25T04:10:18.704Z,13.20
2022-09-25T04:12:46.674Z,13.10
2022-09-25T04:15:15.305Z,13.20
2022-09-25T04:17:43.283Z,13.20
2022-09-25T04:20:11.367Z,13.10
2022-09-25T04:22:39.378Z,13.10
2022-09-25T04:25:10.067Z,13.10
2022-09-25T04:27:38.207Z,13.10
2022-09-25T04:30:07.431Z,13.20
2022-09-25T04:32:52.715Z,13.20
2022-09-25T04:35:20.689Z,13.20
2022-09-25T04:37:48.680Z,13.20
2022-09-25T04:40:18.193Z,13.20
2022-09-25T04:42:46.210Z,13.20
2022-09-25T04:45:14.770Z,13.20
2022-09-25T04:47:42.820Z,13.20
2022-09-25T04:50:10.960Z,13.20
2022-09-25T04:52:39.168Z,13.20
2022-09-25T04:55:07.847Z,13.20
2022-09-25T04:57:57.847Z,13.20
2022-09-25T05:00:27.079Z,13.20
2022-09-25T05:02:55.199Z,13.20
2022-09-25T05:05:30.529Z,13.20
2022-09-25T05:08:00.265Z,13.20
2022-09-25T05:10:30.527Z,13.20
2022-09-25T05:13:01.922Z,13.20
2022-09-25T05:15:32.684Z,13.10
2022-09-25T05:18:01.532Z,13.10
2022-09-25T05:20:29.903Z,13.10
2022-09-25T05:22:58.391Z,13.10
2022-09-25T05:25:27.172Z,13.20
2022-09-25T05:27:58.289Z,13.10
2022-09-25T05:30:29.812Z,13.20
2022-09-25T05:32:59.342Z,13.10
2022-09-25T05:35:29.036Z,13.10
2022-09-25T05:37:57.192Z,13.00
2022-09-25T05:40:25.637Z,13.10
2022-09-25T05:42:55.091Z,13.00
2022-09-25T05:45:24.278Z,12.90
2022-09-25T05:48:03.014Z,12.90
2022-09-25T05:50:32.540Z,12.90
2022-09-25T05:53:01.939Z,12.80
2022-09-25T05:55:30.434Z,12.80
2022-09-25T05:58:02.441Z,12.90
2022-09-25T06:00:32.830Z,12.90
2022-09-25T06:03:02.795Z,12.90
2022-09-25T06:05:31.247Z,12.90
2022-09-25T06:07:59.416Z,12.90
2022-09-25T06:10:27.607Z,12.90
2022-09-25T06:12:59.674Z,13.00
2022-09-25T06:15:28.247Z,12.90
2022-09-25T06:17:56.640Z,12.90
2022-09-25T06:20:26.364Z,12.90
2022-09-25T06:22:54.643Z,12.80
2022-09-25T06:25:23.865Z,12.80
2022-09-25T06:27:54.744Z,12.80
2022-09-25T06:30:22.837Z,12.80
2022-09-25T06:32:57.176Z,12.80
2022-09-25T06:35:26.733Z,12.80
2022-09-25T06:37:58.072Z,12.80
2022-09-25T06:40:27.939Z,12.80
2022-09-25T06:42:59.374Z,12.80
2022-09-25T06:45:28.282Z,12.80
2022-09-25T06:48:01.232Z,12.80
2022-09-25T06:50:37.401Z,12.80
2022-09-25T06:53:05.504Z,12.80
2022-09-25T06:55:34.605Z,12.80
2022-09-25T06:58:02.742Z,12.80
2022-09-25T07:00:30.793Z,12.80
2022-09-25T07:03:16.846Z,12.80
2022-09-25T07:05:48.059Z,12.80
2022-09-25T07:08:17.596Z,12.80
2022-09-25T07:10:50.249Z,12.80
2022-09-25T07:13:18.654Z,12.80
2022-09-25T07:15:52.773Z,12.80
2022-09-25T07:18:20.904Z,12.80
2022-09-25T07:20:51.075Z,12.90
2022-09-25T07:23:21.552Z,12.90
2022-09-25T07:25:50.314Z,13.00
2022-09-25T07:28:20.087Z,13.00
2022-09-25T07:30:49.574Z,12.90
2022-09-25T07:33:17.813Z,12.90
2022-09-25T07:35:45.924Z,12.90
2022-09-25T07:38:15.329Z,12.90
2022-09-25T07:40:43.482Z,12.90
2022-09-25T07:43:11.674Z,13.00
2022-09-25T07:45:39.834Z,13.00
2022-09-25T07:48:07.913Z,13.00
2022-09-25T07:50:36.633Z,13.00
2022-09-25T07:53:04.716Z,13.20
2022-09-25T07:55:34.032Z,13.10
2022-09-25T07:58:02.045Z,13.10
2022-09-25T08:00:30.015Z,13.10
2022-09-25T08:02:59.148Z,13.20
2022-09-25T08:05:27.877Z,13.10
2022-09-25T08:07:56.284Z,13.20
2022-09-25T08:10:24.866Z,13.10
2022-09-25T08:12:54.273Z,13.20
2022-09-25T08:15:22.654Z,13.10
2022-09-25T08:17:50.654Z,13.10
2022-09-25T08:20:18.824Z,13.10
2022-09-25T08:22:47.646Z,13.20
2022-09-25T08:25:15.803Z,13.20
2022-09-25T08:27:44.265Z,13.20
2022-09-25T08:30:17.910Z,13.20
2022-09-25T08:32:45.886Z,13.20
2022-09-25T08:35:14.397Z,13.20
2022-09-25T08:37:44.949Z,13.30
2022-09-25T08:40:19.411Z,13.20
2022-09-25T08:42:50.859Z,13.20
2022-09-25T08:45:45.148Z,13.20
2022-09-25T08:48:40.657Z,13.20
2022-09-25T08:51:10.300Z,13.20
2022-09-25T08:53:40.811Z,13.20
2022-09-25T08:56:17.659Z,13.20
2022-09-25T08:58:52.612Z,13.20
2022-09-25T09:01:25.589Z,13.30
2022-09-25T09:03:58.770Z,13.30
2022-09-25T09:06:29.030Z,13.30
2022-09-25T09:09:06.270Z,13.30
2022-09-25T09:11:39.568Z,13.30
2022-09-25T09:14:12.805Z,13.30
2022-09-25T09:16:46.087Z,13.30
2022-09-25T09:19:14.817Z,13.30
2022-09-25T09:21:48.649Z,13.20
2022-09-25T09:24:18.748Z,13.30
2022-09-25T09:27:06.930Z,13.30
2022-09-25T09:30:05.486Z,13.30
2022-09-25T09:32:46.359Z,13.40
2022-09-25T09:35:31.174Z,13.40
2022-09-25T09:38:12.380Z,13.40
2022-09-25T09:41:04.668Z,13.40
2022-09-25T09:43:43.616Z,13.40
2022-09-25T09:46:21.436Z,13.40
2022-09-25T09:49:12.266Z,13.50
2022-09-25T09:51:44.191Z,13.50
2022-09-25T09:54:17.238Z,13.50
2022-09-25T09:56:49.354Z,13.50
2022-09-25T09:59:20.129Z,13.50
2022-09-25T10:02:00.382Z,13.50
2022-09-25T10:04:34.321Z,13.50
2022-09-25T10:07:06.239Z,13.60
2022-09-25T10:09:34.261Z,13.50
2022-09-25T10:12:04.965Z,13.40
2022-09-25T10:14:37.911Z,13.50
2022-09-25T10:17:07.628Z,13.60
2022-09-25T10:19:45.940Z,13.60
2022-09-25T10:22:17.549Z,13.60
2022-09-25T10:24:51.522Z,13.70
2022-09-25T10:27:32.348Z,13.60
2022-09-25T10:30:06.942Z,13.70
2022-09-25T10:32:38.530Z,13.70
2022-09-25T10:35:16.159Z,13.70
2022-09-25T10:37:44.398Z,13.80
2022-09-25T10:40:26.695Z,13.80
2022-09-25T10:43:07.832Z,13.80
2022-09-25T10:45:38.620Z,13.90
2022-09-25T10:48:46.299Z,13.90
2022-09-25T10:51:18.395Z,13.90
2022-09-25T10:53:47.044Z,13.90
2022-09-25T10:56:20.562Z,13.80
2022-09-25T10:58:55.288Z,13.80
2022-09-25T11:01:34.450Z,13.80
2022-09-25T11:04:05.555Z,13.90
2022-09-25T11:06:36.233Z,13.90
2022-09-25T11:09:10.274Z,14.00
2022-09-25T11:11:41.005Z,14.00
2022-09-25T11:14:21.006Z,14.00
2022-09-25T11:16:54.503Z,14.10
2022-09-25T11:19:29.024Z,14.10
2022-09-25T11:22:18.148Z,14.20
2022-09-25T11:25:00.165Z,14.00
2022-09-25T11:27:36.276Z,14.00
2022-09-25T11:30:07.641Z,14.10
2022-09-25T11:32:51.694Z,14.20
2022-09-25T11:35:33.132Z,14.30
2022-09-25T11:38:12.406Z,14.20
2022-09-25T11:41:07.675Z,14.30
2022-09-25T11:43:46.945Z,14.30
2022-09-25T11:46:24.308Z,14.30
2022-09-25T11:49:01.903Z,14.30
2022-09-25T11:51:47.266Z,14.30
2022-09-25T11:54:35.047Z,14.40
2022-09-25T11:57:09.908Z,14.40
2022-09-25T11:59:49.937Z,14.50
2022-09-25T12:02:30.024Z,14.50
2022-09-25T12:05:18.980Z,14.60
2022-09-25T12:08:10.250Z,14.50
2022-09-25T12:10:50.326Z,14.50
2022-09-25T12:13:28.001Z,14.50
2022-09-25T12:16:08.265Z,14.60
2022-09-25T12:19:03.515Z,14.60
2022-09-25T12:21:41.826Z,14.50
2022-09-25T12:24:20.592Z,14.50
2022-09-25T12:26:57.767Z,14.60
2022-09-25T12:29:57.508Z,14.60
2022-09-25T12:32:37.403Z,14.60
2022-09-25T12:35:21.459Z,14.60
2022-09-25T12:37:54.367Z,14.60
2022-09-25T12:40:26.697Z,14.50
2022-09-25T12:43:00.445Z,14.40
2022-09-25T12:45:34.268Z,14.50
2022-09-25T12:48:08.435Z,14.50
2022-09-25T12:50:41.216Z,14.40
2022-09-25T12:53:26.491Z,14.30
2022-09-25T12:56:00.467Z,14.30
2022-09-25T12:58:43.298Z,14.30
2022-09-25T13:01:20.018Z,14.40
2022-09-25T13:03:55.828Z,14.40
2022-09-25T13:06:31.391Z,14.40
2022-09-25T13:09:05.961Z,14.40
2022-09-25T13:11:45.304Z,14.50
2022-09-25T13:14:23.561Z,14.50
2022-09-25T13:16:51.883Z,14.50
2022-09-25T13:19:28.756Z,14.60
2022-09-25T13:22:03.895Z,14.60
2022-09-25T13:24:39.087Z,14.70
2022-09-25T13:27:10.683Z,14.70
2022-09-25T13:29:40.066Z,14.70
2022-09-25T13:32:15.170Z,14.80
2022-09-25T13:34:43.739Z,14.90
2022-09-25T13:37:13.668Z,15.00
2022-09-25T13:40:03.366Z,15.00
2022-09-25T13:42:36.113Z,15.00
2022-09-25T13:45:28.042Z,15.10
2022-09-25T13:48:07.272Z,15.10
2022-09-25T13:50:38.395Z,15.10
2022-09-25T13:53:29.026Z,15.20
2022-09-25T13:56:28.927Z,15.30
2022-09-25T13:59:07.785Z,15.30
2022-09-25T14:01:40.360Z,15.30
2022-09-25T14:04:18.508Z,15.30
2022-09-25T14:06:48.607Z,15.30
2022-09-25T14:09:19.787Z,15.40
2022-09-25T14:11:57.446Z,15.40
2022-09-25T14:14:31.214Z,15.40
2022-09-25T14:17:01.472Z,15.40
2022-09-25T14:19:37.385Z,15.50
2022-09-25T14:22:07.303Z,15.40
2022-09-25T14:24:36.625Z,15.50
2022-09-25T14:27:04.840Z,15.50
2022-09-25T14:29:42.292Z,15.50
2022-09-25T14:32:53.425Z,15.40
2022-09-25T14:35:28.399Z,15.50
2022-09-25T14:38:14.931Z,15.50
2022-09-25T14:40:58.322Z,15.50
2022-09-25T14:43:54.590Z,15.60
2022-09-25T14:46:24.033Z,15.60
2022-09-25T14:48:57.879Z,15.60
2022-09-25T14:51:29.295Z,15.60
2022-09-25T14:54:00.088Z,15.60
2022-09-25T14:56:31.829Z,15.60
2022-09-25T14:59:03.342Z,15.60
2022-09-25T15:01:32.931Z,15.60
2022-09-25T15:04:04.378Z,15.60
2022-09-25T15:06:34.265Z,15.50
2022-09-25T15:09:03.470Z,15.50
2022-09-25T15:11:41.787Z,15.50
2022-09-25T15:14:20.793Z,15.60
2022-09-25T15:17:07.178Z,15.60
2022-09-25T15:19:40.815Z,15.60
2022-09-25T15:22:14.005Z,15.60
2022-09-25T15:24:48.335Z,15.60
2022-09-25T15:27:17.824Z,15.60
2022-09-25T15:29:48.227Z,15.60
2022-09-25T15:32:19.674Z,15.60
2022-09-25T15:34:49.080Z,15.50
2022-09-25T15:37:21.087Z,15.50
2022-09-25T15:39:49.293Z,15.50
2022-09-25T15:42:17.623Z,15.40
2022-09-25T15:44:46.195Z,15.40
2022-09-25T15:47:47.252Z,15.30
2022-09-25T15:50:23.823Z,15.20
2022-09-25T15:52:55.063Z,15.20
2022-09-25T15:55:24.291Z,15.30
2022-09-25T15:57:54.196Z,15.20
2022-09-25T16:00:41.416Z,15.20
2022-09-25T16:03:34.440Z,15.20
2022-09-25T16:06:04.583Z,15.10
2022-09-25T16:08:34.648Z,15.10
2022-09-25T16:11:17.252Z,15.10
2022-09-25T16:13:48.611Z,15.00
2022-09-25T16:16:26.706Z,15.00
2022-09-25T16:18:55.930Z,15.00
2022-09-25T16:21:29.523Z,14.90
2022-09-25T16:24:00.620Z,14.80
2022-09-25T16:26:36.532Z,14.80
2022-09-25T16:29:14.630Z,14.80
2022-09-25T16:31:45.283Z,14.70
2022-09-25T16:34:23.877Z,14.70
2022-09-25T16:36:55.212Z,14.70
2022-09-25T16:39:26.652Z,14.60
2022-09-25T16:41:55.122Z,14.60
2022-09-25T16:44:35.676Z,14.60
2022-09-25T16:47:16.942Z,14.60
2022-09-25T16:49:45.005Z,14.60
2022-09-25T16:52:20.869Z,14.60
2022-09-25T16:54:54.570Z,14.60
2022-09-25T16:57:23.872Z,14.60
2022-09-25T16:59:52.334Z,14.60
2022-09-25T17:02:33.023Z,14.60
2022-09-25T17:05:03.215Z,14.60
2022-09-25T17:07:32.608Z,14.50
2022-09-25T17:10:01.475Z,14.50
2022-09-25T17:12:32.091Z,14.40
2022-09-25T17:15:00.488Z,14.40
2022-09-25T17:17:29.755Z,14.30
2022-09-25T17:19:57.815Z,14.30
2022-09-25T17:22:30.199Z,14.30
2022-09-25T17:25:03.649Z,14.20
2022-09-25T17:27:31.624Z,14.20
2022-09-25T17:29:59.912Z,14.10
2022-09-25T17:32:29.387Z,14.00
2022-09-25T17:34:58.425Z,14.00
2022-09-25T17:37:26.474Z,13.90
2022-09-25T17:39:54.489Z,13.90
2022-09-25T17:42:26.688Z,13.80
2022-09-25T17:44:54.997Z,13.80
2022-09-25T17:47:22.998Z,13.70
2022-09-25T17:49:51.019Z,13.60
2022-09-25T17:52:22.055Z,13.60
2022-09-25T17:54:50.022Z,13.50
2022-09-25T17:57:17.979Z,13.50
2022-09-25T17:59:47.343Z,13.40
2022-09-25T18:02:17.534Z,13.40
2022-09-25T18:04:45.794Z,13.30
2022-09-25T18:07:15.299Z,13.20
2022-09-25T18:09:43.378Z,13.20
2022-09-25T18:12:11.356Z,13.10
2022-09-25T18:14:39.346Z,13.00
2022-09-25T18:17:08.677Z,12.90
2022-09-25T18:19:54.172Z,12.70
2022-09-25T18:22:25.393Z,12.70
2022-09-25T18:24:56.427Z,12.60
2022-09-25T18:27:26.290Z,12.50
2022-09-25T18:29:54.469Z,12.40
2022-09-25T18:32:24.141Z,12.30
2022-09-25T18:34:52.297Z,12.30
2022-09-25T18:37:20.263Z,12.20
2022-09-25T18:39:48.268Z,12.00
2022-09-25T18:42:16.241Z,11.90
2022-09-25T18:44:44.267Z,11.90
2022-09-25T18:47:12.655Z,11.80
2022-09-25T18:49:42.378Z,11.70
2022-09-25T18:52:10.531Z,11.70
2022-09-25T18:54:42.018Z,11.60
2022-09-25T18:57:10.842Z,11.60
2022-09-25T18:59:38.859Z,11.50
2022-09-25T19:02:08.029Z,11.50
2022-09-25T19:04:36.435Z,11.50
2022-09-25T19:07:05.806Z,11.30
2022-09-25T19:09:33.781Z,11.20
2022-09-25T19:12:01.911Z,11.10
2022-09-25T19:14:30.183Z,11.10
2022-09-25T19:16:58.374Z,11.00
2022-09-25T19:19:26.363Z,11.00
2022-09-25T19:21:54.318Z,10.90
2022-09-25T19:24:23.753Z,10.80
2022-09-25T19:26:51.732Z,10.80
2022-09-25T19:29:19.927Z,10.70
2022-09-25T19:31:48.745Z,10.60
2022-09-25T19:34:16.742Z,10.60
2022-09-25T19:36:44.688Z,10.50
2022-09-25T19:39:12.872Z,10.50
2022-09-25T19:41:43.365Z,10.40
2022-09-25T19:44:14.985Z,10.40
2022-09-25T19:46:43.467Z,10.30
2022-09-25T19:49:11.926Z,10.30
2022-09-25T19:51:40.771Z,10.20
2022-09-25T19:54:11.327Z,10.20
2022-09-25T19:56:42.182Z,10.10
2022-09-25T19:59:14.355Z,10.10
2022-09-25T20:01:43.948Z,10.00
2022-09-25T20:04:17.993Z,10.00
2022-09-25T20:06:47.161Z,9.90
2022-09-25T20:09:15.419Z,9.90
2022-09-25T20:11:43.757Z,9.80
2022-09-25T20:14:13.603Z,9.80
2022-09-25T20:16:41.849Z,9.70
2022-09-25T20:19:11.593Z,9.70
2022-09-25T20:21:41.524Z,9.60
2022-09-25T20:24:10.255Z,9.60
2022-09-25T20:26:38.979Z,9.50
2022-09-25T20:29:09.664Z,9.50
2022-09-25T20:31:41.254Z,9.50
2022-09-25T20:34:13.522Z,9.40
2022-09-25T20:36:41.713Z,9.40
2022-09-25T20:39:10.000Z,9.30
2022-09-25T20:41:38.198Z,9.30
2022-09-25T20:44:06.851Z,9.20
2022-09-25T20:46:35.248Z,9.20
2022-09-25T20:49:04.740Z,9.10
2022-09-25T20:51:35.261Z,9.00
2022-09-25T20:54:05.637Z,9.00
2022-09-25T20:56:34.955Z,9.00
2022-09-25T20:59:03.685Z,9.00
2022-09-25T21:01:35.609Z,8.90
2022-09-25T21:04:08.032Z,8.90
2022-09-25T21:06:38.260Z,8.80
2022-09-25T21:09:08.266Z,8.70
2022-09-25T21:11:37.492Z,8.60
2022-09-25T21:14:05.532Z,8.70
2022-09-25T21:16:34.694Z,8.60
2022-09-25T21:19:05.838Z,8.60
2022-09-25T21:21:34.672Z,8.70
2022-09-25T21:24:03.341Z,8.60
2022-09-25T21:26:32.836Z,8.60
2022-09-25T21:29:02.269Z,8.50
2022-09-25T21:31:32.740Z,8.40
2022-09-25T21:34:01.287Z,8.40
2022-09-25T21:36:31.179Z,8.30
2022-09-25T21:39:00.683Z,8.30
2022-09-25T21:41:30.409Z,8.30
2022-09-25T21:44:00.166Z,8.30
2022-09-25T21:46:29.781Z,8.40
2022-09-25T21:48:59.540Z,8.30
2022-09-25T21:51:29.093Z,8.20
2022-09-25T21:53:58.834Z,8.20
2022-09-25T21:56:29.208Z,8.10
2022-09-25T21:58:58.450Z,8.10
2022-09-25T22:01:28.706Z,8.10
2022-09-25T22:03:59.535Z,8.00
2022-09-25T22:06:29.321Z,8.00
2022-09-25T22:09:02.569Z,7.90
2022-09-25T22:11:31.198Z,7.90
2022-09-25T22:14:00.163Z,7.90
2022-09-25T22:16:30.133Z,7.90
2022-09-25T22:19:00.139Z,7.80
2022-09-25T22:21:31.077Z,7.80
2022-09-25T22:24:00.819Z,7.80
2022-09-25T22:26:29.739Z,7.70
2022-09-25T22:28:58.053Z,7.70
2022-09-25T22:31:28.053Z,7.60
2022-09-25T22:33:58.902Z,7.50
2022-09-25T22:36:27.382Z,7.60
2022-09-25T22:38:55.820Z,7.60
2022-09-25T22:41:25.753Z,7.60
2022-09-25T22:43:55.392Z,7.60
2022-09-25T22:46:24.686Z,7.60
2022-09-25T22:48:53.358Z,7.50
2022-09-25T22:51:23.417Z,7.40
2022-09-25T22:53:52.350Z,7.40
2022-09-25T22:56:22.185Z,7.40
2022-09-25T22:58:53.128Z,7.40
2022-09-25T23:01:24.810Z,7.30
2022-09-25T23:03:56.198Z,7.30
2022-09-25T23:06:24.434Z,7.30
2022-09-25T23:08:54.020Z,7.20
2022-09-25T23:11:23.900Z,7.10
2022-09-25T23:13:58.536Z,7.10
2022-09-25T23:16:27.004Z,7.10
2022-09-25T23:18:56.832Z,7.10
2022-09-25T23:21:25.146Z,7.20
2022-09-25T23:23:56.382Z,7.20
2022-09-25T23:26:24.988Z,7.10
2022-09-25T23:28:54.595Z,7.10
2022-09-25T23:31:23.065Z,7.10
2022-09-25T23:33:51.114Z,7.10
2022-09-25T23:36:21.886Z,7.10
2022-09-25T23:38:51.312Z,7.10
2022-09-25T23:41:22.770Z,7.00
2022-09-25T23:43:52.431Z,6.90
2022-09-25T23:46:23.804Z,6.90
2022-09-25T23:48:52.845Z,6.90
2022-09-25T23:51:22.229Z,6.80
2022-09-25T23:53:51.023Z,6.90
2022-09-25T23:56:20.803Z,6.90
2022-09-25T23:58:49.432Z,6.90
